createdAt,value
2022-10-17T00:03:51.289Z,86.59259
2022-10-17T00:08:52.928Z,78.79212
2022-10-17T00:13:54.440Z,80.58537
2022-10-17T00:18:56.074Z,79.98234
2022-10-17T00:23:57.704Z,101.14286
2022-10-17T00:28:59.370Z,99.16373
2022-10-17T00:34:01.354Z,95.35135
2022-10-17T00:39:02.997Z,90.66667
2022-10-17T00:44:04.630Z,101.54476
2022-10-17T00:49:06.197Z,86.59259
2022-10-17T00:54:07.825Z,79.08772
2022-10-17T00:59:09.441Z,74.78556
2022-10-17T01:04:11.012Z,91.36842
2022-10-17T01:09:12.615Z,86.59259
2022-10-17T01:14:14.261Z,76.18884
2022-10-17T01:19:15.872Z,74.23256
2022-10-17T01:24:17.530Z,75.34328
2022-10-17T01:29:19.128Z,80.58537
2022-10-17T01:34:20.782Z,95.35135
2022-10-17T01:39:22.365Z,98
2022-10-17T01:44:23.968Z,85.93548
2022-10-17T01:49:25.603Z,99.94937
2022-10-17T01:54:27.174Z,104
2022-10-17T01:59:28.741Z,90.66667
2022-10-17T02:04:30.330Z,84
2022-10-17T02:09:31.899Z,96.8536
2022-10-17T02:14:33.460Z,106.96296
2022-10-17T02:19:35.077Z,98
2022-10-17T02:24:36.703Z,84.31891
2022-10-17T02:29:38.269Z,78.79212
2022-10-17T02:34:39.898Z,77.33333
2022-10-17T02:39:41.520Z,78.20479
2022-10-17T02:44:43.170Z,76.47312
2022-10-17T02:49:44.798Z,76.47312
2022-10-17T02:54:46.461Z,75.62393
2022-10-17T02:59:48.069Z,75.34328
2022-10-17T03:04:49.728Z,75.62393
2022-10-17T03:09:51.348Z,86.59259
2022-10-17T03:14:52.972Z,96.8536
2022-10-17T03:19:54.697Z,85.93548
2022-10-17T03:24:56.298Z,79.08772
2022-10-17T03:29:57.889Z,77.04536
2022-10-17T03:34:59.494Z,75.90578
2022-10-17T03:40:01.119Z,77.91304
2022-10-17T03:45:02.765Z,83.36652
2022-10-17T03:50:04.445Z,85.93548
2022-10-17T03:55:06.104Z,92.43373
2022-10-17T04:00:07.840Z,91.01671
2022-10-17T04:05:09.466Z,85.93548
2022-10-17T04:10:11.079Z,85.93548
2022-10-17T04:15:12.793Z,91.72182
2022-10-17T04:20:14.440Z,89.28302
2022-10-17T04:25:16.050Z,92.07692
2022-10-17T04:30:17.628Z,89.28302
2022-10-17T04:35:19.229Z,84.31891
2022-10-17T04:40:20.863Z,84.9611
2022-10-17T04:45:22.469Z,99.16373
2022-10-17T04:50:24.102Z,99.16373
2022-10-17T04:55:25.702Z,93.51456
2022-10-17T05:00:27.344Z,91.36842
2022-10-17T05:05:28.948Z,88.60094
2022-10-17T05:10:30.570Z,87.92523
2022-10-17T05:15:32.207Z,84.9611
2022-10-17T05:20:33.800Z,85.2844
2022-10-17T05:25:35.404Z,84.31891
2022-10-17T05:30:37.764Z,84.9611
2022-10-17T05:35:39.480Z,84
2022-10-17T05:40:41.132Z,84
2022-10-17T05:45:42.751Z,82.11659
2022-10-17T05:50:44.380Z,82.73874
2022-10-17T05:55:45.950Z,86.59259
2022-10-17T06:00:47.517Z,87.58974
2022-10-17T06:05:49.163Z,84.31891
2022-10-17T06:10:50.810Z,85.2844
2022-10-17T06:15:52.474Z,92.07692
2022-10-17T06:20:54.086Z,95.72414
2022-10-17T06:25:55.712Z,91.36842
2022-10-17T06:30:57.332Z,84
2022-10-17T06:35:58.966Z,98.38596
2022-10-17T06:41:00.541Z,99.94937
2022-10-17T06:46:02.178Z,109.5914
2022-10-17T06:51:03.873Z,96.8536
2022-10-17T06:56:05.456Z,100.34518
2022-10-17T07:06:08.670Z,99.16373
2022-10-17T07:11:10.299Z,111.84741
2022-10-17T07:16:11.899Z,131.23404
2022-10-17T07:21:13.541Z,133.53846
2022-10-17T07:26:15.174Z,127.8806
2022-10-17T07:31:16.793Z,129.54217
2022-10-17T07:36:18.361Z,118.50425
2022-10-17T07:41:21.785Z,110.03774
2022-10-17T07:46:23.759Z,98
2022-10-17T07:51:25.321Z,115.58774
2022-10-17T07:56:26.968Z,104.83551
2022-10-17T08:01:28.563Z,104.83551
2022-10-17T08:06:30.162Z,111.3913
2022-10-17T08:11:31.793Z,105.25654
2022-10-17T08:16:33.539Z,101.54476
2022-10-17T08:21:35.138Z,98
2022-10-17T08:26:40.640Z,96.47525
2022-10-17T08:31:47.494Z,99.94937
2022-10-17T08:36:50.093Z,94.61125
2022-10-17T08:41:51.693Z,93.51456
2022-10-17T08:46:53.366Z,98
2022-10-17T08:51:54.951Z,96.8536
2022-10-17T08:56:56.698Z,94.61125
2022-10-17T09:01:58.284Z,96.09877
2022-10-17T09:07:00.078Z,106.10526
2022-10-17T09:12:01.775Z,106.96296
2022-10-17T09:17:03.378Z,102.76289
2022-10-17T09:22:04.979Z,98
2022-10-17T09:27:06.551Z,94.61125
2022-10-17T09:32:08.127Z,88.60094
2022-10-17T09:37:09.741Z,86.92343
2022-10-17T09:42:11.315Z,87.58974
2022-10-17T09:47:12.885Z,91.01671
2022-10-17T09:52:14.486Z,88.94118
2022-10-17T09:57:16.081Z,92.43373
2022-10-17T10:02:17.683Z,97.23383
2022-10-17T10:07:19.310Z,102.76289
2022-10-17T10:12:20.888Z,102.35476
2022-10-17T10:17:22.523Z,98.77387
2022-10-17T10:22:24.095Z,92.07692
2022-10-17T10:27:25.697Z,88.60094
2022-10-17T10:32:27.666Z,86.92343
2022-10-17T10:37:29.888Z,85.2844
2022-10-17T10:42:31.670Z,86.59259
2022-10-17T10:47:33.524Z,88.94118
2022-10-17T10:52:35.241Z,96.8536
2022-10-17T10:57:36.812Z,101.94872
2022-10-17T11:02:38.401Z,106.53298
2022-10-17T11:07:40.047Z,121.52161
2022-10-17T11:12:41.754Z,125.17647
2022-10-17T11:17:43.394Z,122.55072
2022-10-17T11:22:45.021Z,122.55072
2022-10-17T11:27:46.661Z,126.24852
2022-10-17T11:32:48.270Z,118.0113
2022-10-17T11:37:49.845Z,116.06704
2022-10-17T11:42:51.449Z,113.69697
2022-10-17T11:47:53.046Z,100.34518
2022-10-17T11:52:56.709Z,101.14286
2022-10-17T11:57:58.878Z,104.41667
2022-10-17T12:03:00.515Z,105.25654
2022-10-17T12:08:02.159Z,108.26667
2022-10-17T12:13:04.436Z,121.01149
2022-10-17T12:18:06.041Z,114.63712
2022-10-17T12:23:07.678Z,112.76712
2022-10-17T12:28:09.266Z,102.76289
2022-10-17T12:33:10.861Z,94.98039
2022-10-17T12:38:12.503Z,106.53298
2022-10-17T12:43:15.006Z,105.67979
2022-10-17T12:48:16.804Z,117.03371
2022-10-17T12:53:19.361Z,105.25654
2022-10-17T12:58:21.164Z,96.09877
2022-10-17T13:03:22.767Z,91.01671
2022-10-17T13:08:24.359Z,100.743
2022-10-17T13:13:25.998Z,119
2022-10-17T13:18:27.567Z,117.52113
2022-10-17T13:23:29.420Z,110.93767
2022-10-17T13:28:31.471Z,122.55072
2022-10-17T13:33:34.664Z,127.8806
2022-10-17T13:38:38.954Z,122.55072
2022-10-17T13:43:43.624Z,110.93767
2022-10-17T13:48:45.217Z,104
2022-10-17T13:53:46.869Z,96.09877
2022-10-17T13:58:48.479Z,91.36842
2022-10-17T14:04:00.932Z,91.01671
2022-10-17T14:09:09.239Z,88.60094
2022-10-17T14:14:10.820Z,86.59259
2022-10-17T14:19:12.436Z,91.36842
2022-10-17T14:24:14.016Z,98.38596
2022-10-17T14:29:15.593Z,123.59184
2022-10-17T14:34:17.236Z,132.3792
2022-10-17T14:39:18.845Z,134.71207
2022-10-17T14:44:20.415Z,114.63712
2022-10-17T14:49:24.773Z,110.48649
2022-10-17T14:54:26.850Z,103.17313
2022-10-17T14:59:52.630Z,100.743
2022-10-17T15:04:55.421Z,103.58549
2022-10-17T15:09:57.046Z,108.26667
2022-10-17T15:14:58.664Z,104
2022-10-17T15:20:00.294Z,110.03774
2022-10-17T15:25:01.962Z,107.82979
2022-10-17T15:30:03.752Z,106.96296
2022-10-17T15:35:05.400Z,102.76289
2022-10-17T15:40:07.018Z,104
2022-10-17T15:50:10.289Z,134.12346
2022-10-17T15:55:11.889Z,161.66784
2022-10-17T16:00:16.499Z,164
2022-10-17T16:05:18.387Z,135.90031
2022-10-17T16:10:20.061Z,143.35275
2022-10-17T16:15:21.659Z,154.23891
2022-10-17T16:20:23.319Z,144
2022-10-17T16:25:24.907Z,157.14879
2022-10-17T16:30:26.503Z,164
2022-10-17T16:35:31.682Z,160.14035
2022-10-17T16:40:36.645Z,159.38462
2022-10-17T16:45:38.232Z,155.68385
2022-10-17T16:50:39.831Z,150.71141
2022-10-17T16:55:41.461Z,153.52381
2022-10-17T17:00:43.115Z,184.625
2022-10-17T17:05:44.801Z,216.56637
2022-10-17T17:10:46.493Z,240.15385
2022-10-17T17:15:48.130Z,240.15385
2022-10-17T17:20:49.746Z,247.44828
2022-10-17T17:25:51.393Z,294
2022-10-17T17:30:52.994Z,259.89744
2022-10-17T17:35:54.594Z,230.51163
2022-10-17T17:40:56.198Z,222.73303
2022-10-17T17:45:57.803Z,203.91561
2022-10-17T17:50:59.396Z,182.75969
2022-10-17T17:56:01.129Z,180.92308
2022-10-17T18:01:02.741Z,173.85075
2022-10-17T18:06:04.421Z,178.22053
2022-10-17T18:11:06.025Z,189.41833
2022-10-17T18:16:07.617Z,187.47826
2022-10-17T18:21:09.425Z,197.49794
2022-10-17T18:26:11.085Z,214.17544
2022-10-17T18:31:12.673Z,227.87097
2022-10-17T18:36:14.266Z,220.23318
2022-10-17T18:41:15.848Z,227.87097
2022-10-17T18:46:17.449Z,238.73684
2022-10-17T18:51:19.037Z,224
2022-10-17T18:56:20.647Z,244.4878
2022-10-17T19:01:22.448Z,220.23318
2022-10-17T19:06:24.226Z,215.36564
2022-10-17T19:11:25.835Z,201.74059
2022-10-17T19:16:27.440Z,192.3871
2022-10-17T19:21:29.040Z,207.24786
2022-10-17T19:26:30.691Z,216.56637
2022-10-17T19:31:32.410Z,142.07074
2022-10-17T19:36:34.085Z,136.5
2022-10-17T19:41:35.701Z,156.41379
2022-10-17T19:46:37.330Z,189.41833
2022-10-17T19:51:38.912Z,224
2022-10-17T19:56:40.531Z,241.58454
2022-10-17T20:01:42.204Z,139.55556
2022-10-17T20:06:43.831Z,119
2022-10-17T20:11:45.426Z,140.80511
2022-10-17T20:16:47.131Z,152.10811
2022-10-17T20:21:48.784Z,142.07074
2022-10-17T20:26:50.383Z,157.14879
2022-10-17T20:31:52.027Z,134.12346
2022-10-17T20:36:53.647Z,142.70968
2022-10-17T20:41:55.273Z,125.71091
2022-10-17T20:47:02.086Z,157.88889
2022-10-17T20:52:04.268Z,152.81356
2022-10-17T20:57:05.955Z,146.63158
2022-10-17T21:02:07.583Z,144.65147
2022-10-17T21:07:09.182Z,160.14035
2022-10-17T21:12:10.826Z,124.64516
2022-10-17T21:17:12.478Z,120
2022-10-17T21:22:14.101Z,136.5
2022-10-17T21:27:15.702Z,131.80488
2022-10-17T21:32:31.932Z,112.30601
2022-10-17T21:37:49.111Z,110.93767
2022-10-17T21:42:50.708Z,108.26667
2022-10-17T21:48:11.783Z,97.23383
2022-10-17T21:53:14.617Z,99.55556
2022-10-17T21:58:16.222Z,108.70588
2022-10-17T22:03:17.809Z,119
2022-10-17T22:08:19.457Z,131.23404
2022-10-17T22:13:21.201Z,132.95706
2022-10-17T22:18:22.836Z,111.84741
2022-10-17T22:23:24.478Z,115.58774
2022-10-17T22:28:26.155Z,115.58774
2022-10-17T22:33:27.807Z,106.53298
2022-10-17T22:38:29.415Z,98.38596
2022-10-17T22:43:31.029Z,107.39523
2022-10-17T22:48:32.676Z,99.16373
2022-10-17T22:53:34.252Z,101.14286
2022-10-17T22:58:35.887Z,92.43373
2022-10-17T23:03:37.528Z,84
2022-10-17T23:08:39.337Z,83.36652
2022-10-17T23:13:41.039Z,85.2844
2022-10-17T23:18:42.788Z,81.19376
2022-10-17T23:23:44.456Z,92.07692
2022-10-17T23:28:46.138Z,91.72182
2022-10-17T23:33:47.826Z,86.59259
2022-10-17T23:38:51.753Z,88.94118
2022-10-17T23:43:55.680Z,82.42697
2022-10-17T23:48:57.300Z,77.33333
2022-10-17T23:53:58.869Z,83.36652
2022-10-17T23:59:00.467Z,78.79212
